createdAt,value
2019-05-22T00:00:58.246Z,93.59
2019-05-22T00:01:58.458Z,94.26
2019-05-22T00:03:00.497Z,94.93
2019-05-22T00:04:01.469Z,95.31
2019-05-22T00:05:02.706Z,94.55
2019-05-22T00:06:01.817Z,95.60
2019-05-22T00:07:03.420Z,95.03
2019-05-22T00:08:03.158Z,95.41
2019-05-22T00:09:02.716Z,95.31
2019-05-22T00:09:59.594Z,95.70
2019-05-22T00:10:59.767Z,96.08
2019-05-22T00:11:59.937Z,95.51
2019-05-22T00:13:00.103Z,96.47
2019-05-22T00:14:00.279Z,96.84
2019-05-22T00:15:00.495Z,96.56
2019-05-22T00:16:00.617Z,95.89
2019-05-22T00:17:00.786Z,95.31
2019-05-22T00:18:00.954Z,95.70
2019-05-22T00:19:01.125Z,95.41
2019-05-22T00:20:01.293Z,95.03
2019-05-22T00:21:01.461Z,95.60
2019-05-22T00:22:01.626Z,95.79
2019-05-22T00:23:02.041Z,96.18
2019-05-22T00:24:01.954Z,96.51
2019-05-22T00:25:02.125Z,96.61
2019-05-22T00:26:02.305Z,96.32
2019-05-22T00:27:02.460Z,96.47
2019-05-22T00:28:02.630Z,96.27
2019-05-22T00:29:02.817Z,96.32
2019-05-22T00:30:02.971Z,96.94
2019-05-22T00:31:03.145Z,96.32
2019-05-22T00:32:03.310Z,96.61
2019-05-22T00:33:03.765Z,95.84
2019-05-22T00:34:03.587Z,96.42
2019-05-22T00:35:03.781Z,96.80
2019-05-22T00:36:03.933Z,97.38
2019-05-22T00:37:04.108Z,97.38
2019-05-22T00:38:04.320Z,97.80
2019-05-22T00:39:04.449Z,97.90
2019-05-22T00:40:04.619Z,97.75
2019-05-22T00:41:04.797Z,99.10
2019-05-22T00:42:04.960Z,99.62
2019-05-22T00:43:13.464Z,98.81
2019-05-22T00:44:05.704Z,98.71
2019-05-22T00:45:05.370Z,98.62
2019-05-22T00:46:05.541Z,97.66
2019-05-22T00:47:05.750Z,96.99
2019-05-22T00:48:05.876Z,97.47
2019-05-22T00:49:06.054Z,97.85
2019-05-22T00:50:06.227Z,98.33
2019-05-22T00:51:06.403Z,97.75
2019-05-22T00:52:06.568Z,99.19
2019-05-22T00:53:06.736Z,99.00
2019-05-22T00:54:06.912Z,98.52
2019-05-22T00:55:07.070Z,98.52
2019-05-22T00:56:07.240Z,97.47
2019-05-22T00:57:07.412Z,98.14
2019-05-22T00:58:07.581Z,97.95
2019-05-22T00:59:07.749Z,97.75
2019-05-22T01:00:07.917Z,97.90
2019-05-22T01:01:08.085Z,98.14
2019-05-22T01:02:08.254Z,97.66
2019-05-22T01:03:08.426Z,97.47
2019-05-22T01:04:08.605Z,97.56
2019-05-22T01:05:08.780Z,97.47
2019-05-22T01:06:08.947Z,97.75
2019-05-22T01:07:09.118Z,98.24
2019-05-22T01:08:09.285Z,97.75
2019-05-22T01:09:09.453Z,96.89
2019-05-22T01:10:09.624Z,96.89
2019-05-22T01:11:09.791Z,96.80
2019-05-22T01:12:09.967Z,97.56
2019-05-22T01:13:10.132Z,98.33
2019-05-22T01:14:10.444Z,97.95
2019-05-22T01:15:10.591Z,98.33
2019-05-22T01:16:10.615Z,97.75
2019-05-22T01:17:10.797Z,97.95
2019-05-22T01:18:11.169Z,97.38
2019-05-22T01:19:11.184Z,97.18
2019-05-22T01:20:11.382Z,97.75
2019-05-22T01:21:11.477Z,96.80
2019-05-22T01:22:11.646Z,96.51
2019-05-22T01:23:11.813Z,96.32
2019-05-22T01:24:11.981Z,96.42
2019-05-22T01:25:12.151Z,96.42
2019-05-22T01:26:12.321Z,96.80
2019-05-22T01:27:12.492Z,96.89
2019-05-22T01:28:12.664Z,96.37
2019-05-22T01:29:12.842Z,96.89
2019-05-22T01:30:13.006Z,97.38
2019-05-22T01:31:13.192Z,96.99
2019-05-22T01:32:13.335Z,97.18
2019-05-22T01:33:13.513Z,96.89
2019-05-22T01:34:13.682Z,97.18
2019-05-22T01:35:13.871Z,97.38
2019-05-22T01:36:14.036Z,96.22
2019-05-22T01:37:14.204Z,96.22
2019-05-22T01:38:14.381Z,95.89
2019-05-22T01:39:14.899Z,95.61
2019-05-22T01:40:14.704Z,96.08
2019-05-22T01:41:14.868Z,95.70
2019-05-22T01:42:15.033Z,96.13
2019-05-22T01:43:15.218Z,96.61
2019-05-22T01:44:15.382Z,96.42
2019-05-22T01:45:15.566Z,96.42
2019-05-22T01:46:15.736Z,96.32
2019-05-22T01:47:15.908Z,96.80
2019-05-22T01:48:16.077Z,95.84
2019-05-22T01:49:16.249Z,95.65
2019-05-22T01:50:16.422Z,95.27
2019-05-22T01:51:16.594Z,94.60
2019-05-22T01:52:16.762Z,95.56
2019-05-22T01:53:16.939Z,95.56
2019-05-22T01:54:17.101Z,96.80
2019-05-22T01:55:17.275Z,96.70
2019-05-22T01:56:17.444Z,96.22
2019-05-22T01:57:17.613Z,95.17
2019-05-22T01:58:17.854Z,94.60
2019-05-22T01:59:17.949Z,94.40
2019-05-22T02:00:18.126Z,94.17
2019-05-22T02:01:18.292Z,94.02
2019-05-22T02:02:18.481Z,94.60
2019-05-22T02:03:18.642Z,94.79
2019-05-22T02:04:18.805Z,94.98
2019-05-22T02:05:18.970Z,95.36
2019-05-22T02:06:19.142Z,95.27
2019-05-22T02:07:19.312Z,95.07
2019-05-22T02:08:19.483Z,94.55
2019-05-22T02:09:19.651Z,94.17
2019-05-22T02:10:19.822Z,94.07
2019-05-22T02:11:19.995Z,94.45
2019-05-22T02:12:20.167Z,95.22
2019-05-22T02:13:20.346Z,95.31
2019-05-22T02:14:20.504Z,94.93
2019-05-22T02:15:20.677Z,94.36
2019-05-22T02:16:20.847Z,94.74
2019-05-22T02:17:21.012Z,94.74
2019-05-22T02:18:21.180Z,94.12
2019-05-22T02:19:21.353Z,95.65
2019-05-22T02:20:21.517Z,95.41
2019-05-22T02:21:21.706Z,95.03
2019-05-22T02:22:21.861Z,95.31
2019-05-22T02:23:22.030Z,94.26
2019-05-22T02:24:22.210Z,94.36
2019-05-22T02:25:22.374Z,94.98
2019-05-22T02:26:22.543Z,95.31
2019-05-22T02:27:22.716Z,94.79
2019-05-22T02:28:22.876Z,94.79
2019-05-22T02:29:23.058Z,94.69
2019-05-22T02:30:23.241Z,95.27
2019-05-22T02:31:23.400Z,95.46
2019-05-22T02:32:23.566Z,95.89
2019-05-22T02:33:23.743Z,96.22
2019-05-22T02:34:23.907Z,95.36
2019-05-22T02:35:24.085Z,95.27
2019-05-22T02:36:24.247Z,94.55
2019-05-22T02:37:24.420Z,93.98
2019-05-22T02:38:24.587Z,94.45
2019-05-22T02:39:24.758Z,95.46
2019-05-22T02:40:24.922Z,95.94
2019-05-22T02:41:25.105Z,95.17
2019-05-22T02:42:25.271Z,95.79
2019-05-22T02:43:25.439Z,95.84
2019-05-22T02:44:25.617Z,96.42
2019-05-22T02:45:25.785Z,96.56
2019-05-22T02:46:25.958Z,96.18
2019-05-22T02:47:26.133Z,96.75
2019-05-22T02:48:26.302Z,96.32
2019-05-22T02:49:26.471Z,96.61
2019-05-22T02:50:26.637Z,95.89
2019-05-22T02:51:26.812Z,95.56
2019-05-22T02:52:26.992Z,95.84
2019-05-22T02:53:27.144Z,95.31
2019-05-22T02:54:27.319Z,95.98
2019-05-22T02:55:27.497Z,95.98
2019-05-22T02:56:27.675Z,96.08
2019-05-22T02:57:27.833Z,96.56
2019-05-22T02:58:28.016Z,95.75
2019-05-22T02:59:28.181Z,95.46
2019-05-22T03:00:28.352Z,95.79
2019-05-22T03:01:28.529Z,95.75
2019-05-22T03:02:28.688Z,95.31
2019-05-22T03:03:28.899Z,95.94
2019-05-22T03:04:29.040Z,95.84
2019-05-22T03:05:29.210Z,95.94
2019-05-22T03:06:29.382Z,95.65
2019-05-22T03:07:29.552Z,95.46
2019-05-22T03:08:29.729Z,95.22
2019-05-22T03:09:29.894Z,94.55
2019-05-22T03:10:30.064Z,94.69
2019-05-22T03:11:34.403Z,95.07
2019-05-22T03:12:30.409Z,95.65
2019-05-22T03:13:30.566Z,95.75
2019-05-22T03:14:30.746Z,95.27
2019-05-22T03:15:30.905Z,95.75
2019-05-22T03:16:31.074Z,95.56
2019-05-22T03:17:31.311Z,95.36
2019-05-22T03:18:31.408Z,95.07
2019-05-22T03:19:31.581Z,94.79
2019-05-22T03:20:31.755Z,94.40
2019-05-22T03:21:31.952Z,94.50
2019-05-22T03:22:32.091Z,94.60
2019-05-22T03:23:32.266Z,95.46
2019-05-22T03:24:32.428Z,95.46
2019-05-22T03:25:32.603Z,95.46
2019-05-22T03:26:32.776Z,95.07
2019-05-22T03:27:32.952Z,95.84
2019-05-22T03:28:33.186Z,95.84
2019-05-22T03:29:33.312Z,95.07
2019-05-22T03:30:33.494Z,95.84
2019-05-22T03:31:33.647Z,94.98
2019-05-22T03:32:33.822Z,95.36
2019-05-22T03:33:33.981Z,95.36
2019-05-22T03:34:34.147Z,94.79
2019-05-22T03:35:34.316Z,93.54
2019-05-22T03:36:34.479Z,93.79
2019-05-22T03:37:34.652Z,93.93
2019-05-22T03:38:34.820Z,93.83
2019-05-22T03:39:35.013Z,94.60
2019-05-22T03:40:35.161Z,93.83
2019-05-22T03:41:35.327Z,94.02
2019-05-22T03:42:35.498Z,95.46
2019-05-22T03:43:35.668Z,96.13
2019-05-22T03:44:35.836Z,96.42
2019-05-22T03:45:36.021Z,95.84
2019-05-22T03:46:36.183Z,95.84
2019-05-22T03:47:36.349Z,95.75
2019-05-22T03:48:36.526Z,96.80
2019-05-22T03:49:36.690Z,95.84
2019-05-22T03:50:36.861Z,95.75
2019-05-22T03:51:37.028Z,95.84
2019-05-22T03:52:37.205Z,95.65
2019-05-22T03:53:37.380Z,95.46
2019-05-22T03:54:37.553Z,95.56
2019-05-22T03:55:37.717Z,95.56
2019-05-22T03:56:37.886Z,95.94
2019-05-22T03:57:38.060Z,95.84
2019-05-22T03:58:38.228Z,95.27
2019-05-22T03:59:38.400Z,95.36
2019-05-22T04:00:42.999Z,95.36
2019-05-22T04:01:38.743Z,95.46
2019-05-22T04:02:38.921Z,94.89
2019-05-22T04:03:39.082Z,94.79
2019-05-22T04:04:39.251Z,94.31
2019-05-22T04:05:39.414Z,94.12
2019-05-22T04:06:39.583Z,94.55
2019-05-22T04:07:41.089Z,94.60
2019-05-22T04:08:39.909Z,94.50
2019-05-22T04:09:40.070Z,94.31
2019-05-22T04:10:41.152Z,93.74
2019-05-22T04:11:40.411Z,93.83
2019-05-22T04:12:40.588Z,94.60
2019-05-22T04:13:40.780Z,94.31
2019-05-22T04:14:40.945Z,93.74
2019-05-22T04:15:41.129Z,92.87
2019-05-22T04:16:41.293Z,93.83
2019-05-22T04:17:41.455Z,92.97
2019-05-22T04:18:41.631Z,92.49
2019-05-22T04:19:49.522Z,93.16
2019-05-22T04:20:41.963Z,92.58
2019-05-22T04:21:42.137Z,92.30
2019-05-22T04:22:42.303Z,91.44
2019-05-22T04:23:42.474Z,91.82
2019-05-22T04:24:42.637Z,92.11
2019-05-22T04:25:42.858Z,92.49
2019-05-22T04:26:42.984Z,92.58
2019-05-22T04:27:43.141Z,92.78
2019-05-22T04:28:43.312Z,92.68
2019-05-22T04:29:43.481Z,92.97
2019-05-22T04:30:43.652Z,92.97
2019-05-22T04:31:46.802Z,92.30
2019-05-22T04:32:43.942Z,91.53
2019-05-22T04:33:44.109Z,91.53
2019-05-22T04:34:44.267Z,91.34
2019-05-22T04:35:44.447Z,92.11
2019-05-22T04:36:44.608Z,92.30
2019-05-22T04:37:44.780Z,92.21
2019-05-22T04:38:44.945Z,91.92
2019-05-22T04:39:45.121Z,91.44
2019-05-22T04:40:45.376Z,91.25
2019-05-22T04:41:45.394Z,91.53
2019-05-22T04:42:45.566Z,91.34
2019-05-22T04:43:45.729Z,91.72
2019-05-22T04:44:45.893Z,92.30
2019-05-22T04:45:46.061Z,92.68
2019-05-22T04:46:46.224Z,92.78
2019-05-22T04:47:46.473Z,92.30
2019-05-22T04:48:48.461Z,92.87
2019-05-22T04:50:06.313Z,92.58
2019-05-22T04:50:47.416Z,93.07
2019-05-22T04:51:49.422Z,92.87
2019-05-22T04:52:47.090Z,92.68
2019-05-22T04:53:47.267Z,93.26
2019-05-22T04:54:47.434Z,92.63
2019-05-22T04:55:47.620Z,91.72
2019-05-22T04:56:47.775Z,92.11
2019-05-22T04:57:47.952Z,91.63
2019-05-22T04:58:48.107Z,92.30
2019-05-22T04:59:48.284Z,91.92
2019-05-22T05:00:48.444Z,92.11
2019-05-22T05:01:48.609Z,91.15
2019-05-22T05:02:48.779Z,91.15
2019-05-22T05:03:49.040Z,91.82
2019-05-22T05:04:49.155Z,91.53
2019-05-22T05:05:49.377Z,90.86
2019-05-22T05:06:49.509Z,91.05
2019-05-22T05:07:49.675Z,90.67
2019-05-22T05:08:49.851Z,90.77
2019-05-22T05:09:50.016Z,91.15
2019-05-22T05:10:50.181Z,90.86
2019-05-22T05:11:50.358Z,90.77
2019-05-22T05:12:50.526Z,91.15
2019-05-22T05:13:50.719Z,91.44
2019-05-22T05:14:50.888Z,91.15
2019-05-22T05:15:51.041Z,91.63
2019-05-22T05:16:51.211Z,90.58
2019-05-22T05:17:51.388Z,90.86
2019-05-22T05:18:51.639Z,91.15
2019-05-22T05:19:51.665Z,90.58
2019-05-22T05:20:51.844Z,90.58
2019-05-22T05:21:52.008Z,90.77
2019-05-22T05:22:52.178Z,91.63
2019-05-22T05:23:53.145Z,91.05
2019-05-22T05:24:55.541Z,90.86
2019-05-22T05:25:52.693Z,90.86
2019-05-22T05:26:52.856Z,91.15
2019-05-22T05:27:53.019Z,91.82
2019-05-22T05:28:53.192Z,91.53
2019-05-22T05:29:53.357Z,92.21
2019-05-22T05:30:53.533Z,91.92
2019-05-22T05:31:53.703Z,91.72
2019-05-22T05:32:53.871Z,92.01
2019-05-22T05:33:54.033Z,91.15
2019-05-22T05:34:54.220Z,91.44
2019-05-22T05:35:54.398Z,92.49
2019-05-22T05:36:54.590Z,92.68
2019-05-22T05:37:54.734Z,91.92
2019-05-22T05:38:54.896Z,91.15
2019-05-22T05:39:55.070Z,92.21
2019-05-22T05:40:55.244Z,92.30
2019-05-22T05:41:55.413Z,92.21
2019-05-22T05:42:55.587Z,91.92
2019-05-22T05:43:55.763Z,91.05
2019-05-22T05:44:55.934Z,90.48
2019-05-22T05:45:56.101Z,91.15
2019-05-22T05:46:56.464Z,90.77
2019-05-22T05:47:56.689Z,90.96
2019-05-22T05:48:56.887Z,91.25
2019-05-22T05:49:56.954Z,90.77
2019-05-22T05:50:57.138Z,90.77
2019-05-22T05:51:57.317Z,90.67
2019-05-22T05:52:58.762Z,91.92
2019-05-22T05:53:59.683Z,91.92
2019-05-22T05:54:57.757Z,91.34
2019-05-22T05:55:57.885Z,90.39
2019-05-22T05:56:58.059Z,89.90
2019-05-22T05:57:58.324Z,89.33
2019-05-22T05:58:58.577Z,89.90
2019-05-22T05:59:58.559Z,89.81
2019-05-22T06:00:58.934Z,90.67
2019-05-22T06:01:58.801Z,90.77
2019-05-22T06:02:59.074Z,90.77
2019-05-22T06:03:59.292Z,90.86
2019-05-22T06:04:59.323Z,91.63
2019-05-22T06:05:59.617Z,91.82
2019-05-22T06:07:00.851Z,91.44
2019-05-22T06:07:59.651Z,91.34
2019-05-22T06:08:59.813Z,90.77
2019-05-22T06:09:59.976Z,90.96
2019-05-22T06:11:00.141Z,90.19
2019-05-22T06:12:00.313Z,91.05
2019-05-22T06:13:00.541Z,90.58
2019-05-22T06:14:00.642Z,90.58
2019-05-22T06:15:00.824Z,90.33
2019-05-22T06:16:00.996Z,90.33
2019-05-22T06:17:01.471Z,89.66
2019-05-22T06:18:01.588Z,89.18
2019-05-22T06:19:01.588Z,88.70
2019-05-22T06:20:01.732Z,87.94
2019-05-22T06:21:04.251Z,87.90
2019-05-22T06:22:02.032Z,87.94
2019-05-22T06:23:02.212Z,88.80
2019-05-22T06:24:02.373Z,87.55
2019-05-22T06:25:02.855Z,88.99
2019-05-22T06:26:03.315Z,89.66
2019-05-22T06:27:02.880Z,89.76
2019-05-22T06:28:03.054Z,89.86
2019-05-22T06:29:03.221Z,89.28
2019-05-22T06:30:03.514Z,89.66
2019-05-22T06:31:03.870Z,89.66
2019-05-22T06:32:03.670Z,89.18
2019-05-22T06:33:03.860Z,89.95
2019-05-22T06:34:04.036Z,90.33
2019-05-22T06:35:04.284Z,90.81
2019-05-22T06:36:04.398Z,90.62
2019-05-22T06:37:04.578Z,90.14
2019-05-22T06:38:04.751Z,89.66
2019-05-22T06:39:04.918Z,90.14
2019-05-22T06:40:05.106Z,89.57
2019-05-22T06:41:05.275Z,88.80
2019-05-22T06:42:05.435Z,88.23
2019-05-22T06:43:05.616Z,88.13
2019-05-22T06:44:05.781Z,87.55
2019-05-22T06:45:06.140Z,88.51
2019-05-22T06:46:06.125Z,87.74
2019-05-22T06:47:06.314Z,88.13
2019-05-22T06:48:06.466Z,87.55
2019-05-22T06:49:06.635Z,87.94
2019-05-22T06:50:06.810Z,88.80
2019-05-22T06:51:18.933Z,89.09
2019-05-22T06:52:07.162Z,88.13
2019-05-22T06:53:09.946Z,87.37
2019-05-22T06:54:07.498Z,87.55
2019-05-22T06:55:07.681Z,86.69
2019-05-22T06:56:07.849Z,87.17
2019-05-22T06:57:08.024Z,87.46
2019-05-22T06:58:08.195Z,86.88
2019-05-22T06:59:08.375Z,87.27
2019-05-22T07:00:14.306Z,87.27
2019-05-22T07:01:09.277Z,87.46
2019-05-22T07:02:08.982Z,87.27
2019-05-22T07:03:09.050Z,86.69
2019-05-22T07:04:09.214Z,85.83
2019-05-22T07:05:09.442Z,85.83
2019-05-22T07:06:09.566Z,85.06
2019-05-22T07:07:11.789Z,85.16
2019-05-22T07:08:09.917Z,85.01
2019-05-22T07:09:10.085Z,85.78
2019-05-22T07:10:10.257Z,86.16
2019-05-22T07:11:10.434Z,86.07
2019-05-22T07:12:11.808Z,84.91
2019-05-22T07:13:10.796Z,84.82
2019-05-22T07:14:10.967Z,84.44
2019-05-22T07:15:11.144Z,84.34
2019-05-22T07:16:11.319Z,84.25
2019-05-22T07:17:11.499Z,83.86
2019-05-22T07:18:12.796Z,83.42
2019-05-22T07:19:11.835Z,83.14
2019-05-22T07:20:12.011Z,82.42
2019-05-22T07:21:12.179Z,83.38
2019-05-22T07:22:12.349Z,83.33
2019-05-22T07:23:12.518Z,83.04
2019-05-22T07:24:12.686Z,83.38
2019-05-22T07:25:12.866Z,82.85
2019-05-22T07:26:13.031Z,82.85
2019-05-22T07:27:13.189Z,82.46
2019-05-22T07:28:13.453Z,82.65
2019-05-22T07:29:13.525Z,83.33
2019-05-22T07:30:13.749Z,83.91
2019-05-22T07:31:13.863Z,82.75
2019-05-22T07:32:14.045Z,82.56
2019-05-22T07:33:14.217Z,82.08
2019-05-22T07:34:14.384Z,82.65
2019-05-22T07:35:14.563Z,83.14
2019-05-22T07:36:17.013Z,82.85
2019-05-22T07:37:14.912Z,82.46
2019-05-22T07:38:15.111Z,82.65
2019-05-22T07:39:15.259Z,82.62
2019-05-22T07:40:15.425Z,82.52
2019-05-22T07:41:15.596Z,83.14
2019-05-22T07:42:15.765Z,83.86
2019-05-22T07:43:15.944Z,83.38
2019-05-22T07:44:16.125Z,83.38
2019-05-22T07:45:16.310Z,83.67
2019-05-22T07:46:16.469Z,84.05
2019-05-22T07:47:16.719Z,83.29
2019-05-22T07:48:16.877Z,82.96
2019-05-22T07:49:17.140Z,83.34
2019-05-22T07:50:17.175Z,83.25
2019-05-22T07:51:17.695Z,83.15
2019-05-22T07:52:17.525Z,84.01
2019-05-22T07:53:17.724Z,84.20
2019-05-22T07:54:17.951Z,84.68
2019-05-22T07:55:18.592Z,84.78
2019-05-22T07:56:18.258Z,84.30
2019-05-22T07:57:18.443Z,83.72
2019-05-22T07:58:18.658Z,84.05
2019-05-22T07:59:18.850Z,84.15
2019-05-22T08:00:19.215Z,84.15
2019-05-22T08:01:19.193Z,85.39
2019-05-22T08:02:19.418Z,84.91
2019-05-22T08:03:19.602Z,85.01
2019-05-22T08:04:19.746Z,84.77
2019-05-22T08:05:20.113Z,83.71
2019-05-22T08:06:20.088Z,82.27
2019-05-22T08:07:20.259Z,81.98
2019-05-22T08:08:20.417Z,81.79
2019-05-22T08:09:20.744Z,82.08
2019-05-22T08:10:21.107Z,82.27
2019-05-22T08:11:21.126Z,82.94
2019-05-22T08:12:21.521Z,82.56
2019-05-22T08:13:21.447Z,82.94
2019-05-22T08:14:21.742Z,82.75
2019-05-22T08:15:21.641Z,83.14
2019-05-22T08:16:21.800Z,81.98
2019-05-22T08:17:21.997Z,81.79
2019-05-22T08:18:22.288Z,81.89
2019-05-22T08:19:22.289Z,82.37
2019-05-22T08:20:22.498Z,82.65
2019-05-22T08:21:23.695Z,82.37
2019-05-22T08:22:22.802Z,82.85
2019-05-22T08:23:22.978Z,82.42
2019-05-22T08:24:23.147Z,82.62
2019-05-22T08:25:23.314Z,83.71
2019-05-22T08:26:23.485Z,83.52
2019-05-22T08:27:23.669Z,84.09
2019-05-22T08:28:23.834Z,82.65
2019-05-22T08:29:23.998Z,82.85
2019-05-22T08:30:24.171Z,82.65
2019-05-22T08:31:24.596Z,82.08
2019-05-22T08:32:24.556Z,81.60
2019-05-22T08:33:24.736Z,81.51
2019-05-22T08:34:24.913Z,81.79
2019-05-22T08:35:25.075Z,81.89
2019-05-22T08:36:25.277Z,82.37
2019-05-22T08:37:25.425Z,82.65
2019-05-22T08:38:25.669Z,83.71
2019-05-22T08:39:25.749Z,83.42
2019-05-22T08:40:25.898Z,83.42
2019-05-22T08:41:26.101Z,84.38
2019-05-22T08:42:26.258Z,82.46
2019-05-22T08:43:26.431Z,81.27
2019-05-22T08:44:26.603Z,81.95
2019-05-22T08:45:26.776Z,81.60
2019-05-22T08:46:26.963Z,81.56
2019-05-22T08:47:27.125Z,81.41
2019-05-22T08:48:28.078Z,81.31
2019-05-22T08:49:27.488Z,80.93
2019-05-22T08:50:27.649Z,82.56
2019-05-22T08:51:28.568Z,82.65
2019-05-22T08:52:27.979Z,81.79
2019-05-22T08:53:28.161Z,81.22
2019-05-22T08:54:28.326Z,81.22
2019-05-22T08:55:28.495Z,80.93
2019-05-22T08:56:28.667Z,80.78
2019-05-22T08:57:28.835Z,81.51
2019-05-22T08:58:29.005Z,82.46
2019-05-22T08:59:29.180Z,81.41
2019-05-22T09:00:29.343Z,81.51
2019-05-22T09:01:29.515Z,81.45
2019-05-22T09:02:29.686Z,80.35
2019-05-22T09:03:29.891Z,79.63
2019-05-22T09:04:30.051Z,80.35
2019-05-22T09:05:31.338Z,81.79
2019-05-22T09:06:32.122Z,81.89
2019-05-22T09:07:30.915Z,82.12
2019-05-22T09:08:30.801Z,82.03
2019-05-22T09:09:30.971Z,82.65
2019-05-22T09:10:31.116Z,81.93
2019-05-22T09:11:31.323Z,81.41
2019-05-22T09:12:31.995Z,81.02
2019-05-22T09:13:31.680Z,81.31
2019-05-22T09:14:32.410Z,81.12
2019-05-22T09:15:33.107Z,81.51
2019-05-22T09:16:32.583Z,82.18
2019-05-22T09:17:33.708Z,82.46
2019-05-22T09:18:33.627Z,82.18
2019-05-22T09:19:33.259Z,82.75
2019-05-22T09:20:48.246Z,82.65
2019-05-22T09:21:33.366Z,82.52
2019-05-22T09:22:40.883Z,82.42
2019-05-22T09:23:33.501Z,82.62
2019-05-22T09:24:33.741Z,82.46
2019-05-22T09:25:33.815Z,82.04
2019-05-22T09:26:33.961Z,82.46
2019-05-22T09:27:34.391Z,82.52
2019-05-22T09:28:34.935Z,83.71
2019-05-22T09:29:34.318Z,84.19
2019-05-22T09:30:35.281Z,84.28
2019-05-22T09:31:37.584Z,83.61
2019-05-22T09:32:35.331Z,82.85
2019-05-22T09:33:36.176Z,83.04
2019-05-22T09:34:37.458Z,82.65
2019-05-22T09:35:36.826Z,82.37
2019-05-22T09:36:38.688Z,82.94
2019-05-22T09:37:35.742Z,82.56
2019-05-22T09:38:35.956Z,81.89
2019-05-22T09:39:35.987Z,81.41
2019-05-22T09:40:36.129Z,81.89
2019-05-22T09:41:36.323Z,82.08
2019-05-22T09:42:36.479Z,82.46
2019-05-22T09:43:36.875Z,81.79
2019-05-22T09:44:37.065Z,82.18
2019-05-22T09:45:37.025Z,81.22
2019-05-22T09:46:37.194Z,81.22
2019-05-22T09:47:37.386Z,82.08
2019-05-22T09:48:37.638Z,82.75
2019-05-22T09:49:37.684Z,82.56
2019-05-22T09:50:37.853Z,83.42
2019-05-22T09:51:38.034Z,82.85
2019-05-22T09:52:38.272Z,82.65
2019-05-22T09:53:38.583Z,81.89
2019-05-22T09:54:38.617Z,81.60
2019-05-22T09:55:38.758Z,81.89
2019-05-22T09:56:38.933Z,81.51
2019-05-22T09:57:39.099Z,81.79
2019-05-22T09:58:39.282Z,82.08
2019-05-22T09:59:39.437Z,81.70
2019-05-22T10:00:39.631Z,80.74
2019-05-22T10:01:39.790Z,80.35
2019-05-22T10:02:39.993Z,81.26
2019-05-22T10:03:40.145Z,81.45
2019-05-22T10:04:40.334Z,81.93
2019-05-22T10:05:40.518Z,80.68
2019-05-22T10:06:40.986Z,80.11
2019-05-22T10:07:57.881Z,80.30
2019-05-22T10:08:40.940Z,80.87
2019-05-22T10:09:41.114Z,80.20
2019-05-22T10:10:41.281Z,80.49
2019-05-22T10:11:41.444Z,80.78
2019-05-22T10:12:41.616Z,81.84
2019-05-22T10:13:41.942Z,81.54
2019-05-22T10:14:42.020Z,80.78
2019-05-22T10:15:42.155Z,80.30
2019-05-22T10:16:42.355Z,80.58
2019-05-22T10:17:42.486Z,80.30
2019-05-22T10:18:42.669Z,80.68
2019-05-22T10:19:42.905Z,80.78
2019-05-22T10:20:43.048Z,79.53
2019-05-22T10:21:43.223Z,78.47
2019-05-22T10:22:43.384Z,79.09
2019-05-22T10:23:43.821Z,79.63
2019-05-22T10:24:43.781Z,79.72
2019-05-22T10:25:43.948Z,79.82
2019-05-22T10:26:44.120Z,79.53
2019-05-22T10:27:44.296Z,79.14
2019-05-22T10:28:44.488Z,79.44
2019-05-22T10:29:44.639Z,80.49
2019-05-22T10:30:44.795Z,80.45
2019-05-22T10:31:44.959Z,80.83
2019-05-22T10:32:45.129Z,80.64
2019-05-22T10:33:45.293Z,80.45
2019-05-22T10:34:45.470Z,80.26
2019-05-22T10:35:45.639Z,80.55
2019-05-22T10:36:50.177Z,81.02
2019-05-22T10:37:46.062Z,82.56
2019-05-22T10:38:46.174Z,82.75
2019-05-22T10:39:48.692Z,81.60
2019-05-22T10:40:46.571Z,81.22
2019-05-22T10:41:48.197Z,79.55
2019-05-22T10:42:47.732Z,79.45
2019-05-22T10:43:47.085Z,79.83
2019-05-22T10:44:47.275Z,80.89
2019-05-22T10:45:47.340Z,81.56
2019-05-22T10:46:47.510Z,81.37
2019-05-22T10:47:47.707Z,82.81
2019-05-22T10:48:47.854Z,82.62
2019-05-22T10:49:48.023Z,82.56
2019-05-22T10:50:48.282Z,82.75
2019-05-22T10:51:48.474Z,82.08
2019-05-22T10:52:53.674Z,80.45
2019-05-22T10:53:48.699Z,79.68
2019-05-22T10:54:48.862Z,79.45
2019-05-22T10:55:49.094Z,79.78
2019-05-22T10:56:49.263Z,80.07
2019-05-22T10:57:49.566Z,80.45
2019-05-22T10:58:49.613Z,79.49
2019-05-22T10:59:50.137Z,79.01
2019-05-22T11:00:50.050Z,78.63
2019-05-22T11:01:50.047Z,78.63
2019-05-22T11:02:50.282Z,78.25
2019-05-22T11:03:50.972Z,77.67
2019-05-22T11:04:51.648Z,76.62
2019-05-22T11:06:05.806Z,76.62
2019-05-22T11:06:51.202Z,76.90
2019-05-22T11:07:51.046Z,77.29
2019-05-22T11:08:51.212Z,77.51
2019-05-22T11:09:51.619Z,78.57
2019-05-22T11:10:51.657Z,78.28
2019-05-22T11:11:51.841Z,78.19
2019-05-22T11:12:51.821Z,77.71
2019-05-22T11:14:01.442Z,77.51
2019-05-22T11:14:52.247Z,77.33
2019-05-22T11:15:52.563Z,77.04
2019-05-22T11:16:53.259Z,76.37
2019-05-22T11:17:52.799Z,76.17
2019-05-22T11:18:52.688Z,77.13
2019-05-22T11:19:52.880Z,76.21
2019-05-22T11:20:53.891Z,76.40
2019-05-22T11:21:56.841Z,76.79
2019-05-22T11:22:53.475Z,76.12
2019-05-22T11:23:53.654Z,76.02
2019-05-22T11:24:53.886Z,76.02
2019-05-22T11:25:53.939Z,76.02
2019-05-22T11:26:54.119Z,75.35
2019-05-22T11:27:54.294Z,75.45
2019-05-22T11:28:54.470Z,76.02
2019-05-22T11:29:54.705Z,75.77
2019-05-22T11:30:54.959Z,75.48
2019-05-22T11:31:54.948Z,74.90
2019-05-22T11:32:55.145Z,74.62
2019-05-22T11:33:55.321Z,74.52
2019-05-22T11:34:55.656Z,74.52
2019-05-22T11:35:55.670Z,74.62
2019-05-22T11:36:55.893Z,73.66
2019-05-22T11:37:56.018Z,74.23
2019-05-22T11:38:56.199Z,73.94
2019-05-22T11:39:56.610Z,73.94
2019-05-22T11:40:56.522Z,73.91
2019-05-22T11:41:56.817Z,74.19
2019-05-22T11:42:57.040Z,74.43
2019-05-22T11:43:57.110Z,73.94
2019-05-22T11:44:57.389Z,73.56
2019-05-22T11:45:57.510Z,73.91
2019-05-22T11:46:57.592Z,74.81
2019-05-22T11:47:57.777Z,74.81
2019-05-22T11:48:58.319Z,74.81
2019-05-22T11:49:58.081Z,74.43
2019-05-22T11:51:01.040Z,74.13
2019-05-22T11:51:59.676Z,73.75
2019-05-22T11:52:58.682Z,73.94
2019-05-22T11:54:08.733Z,73.11
2019-05-22T11:54:58.842Z,73.50
2019-05-22T11:55:59.045Z,72.92
2019-05-22T11:56:59.218Z,73.02
2019-05-22T11:57:59.388Z,73.31
2019-05-22T11:58:59.579Z,72.92
2019-05-22T11:59:59.725Z,73.98
2019-05-22T12:00:59.906Z,72.73
2019-05-22T12:02:00.077Z,73.21
2019-05-22T12:03:00.246Z,72.54
2019-05-22T12:04:00.424Z,72.54
2019-05-22T12:05:00.593Z,72.67
2019-05-22T12:06:00.784Z,71.71
2019-05-22T12:07:00.940Z,71.42
2019-05-22T12:08:01.093Z,71.19
2019-05-22T12:09:01.264Z,71.87
2019-05-22T12:10:01.442Z,72.06
2019-05-22T12:11:01.623Z,72.83
2019-05-22T12:12:03.412Z,73.54
2019-05-22T12:13:03.923Z,73.06
2019-05-22T12:14:03.833Z,72.19
2019-05-22T12:15:03.180Z,71.91
2019-05-22T12:16:02.350Z,71.71
2019-05-22T12:17:02.543Z,71.81
2019-05-22T12:18:02.693Z,69.89
2019-05-22T12:19:06.476Z,69.24
2019-05-22T12:20:03.084Z,69.92
2019-05-22T12:21:03.250Z,69.92
2019-05-22T12:22:03.422Z,69.15
2019-05-22T12:23:03.579Z,69.06
2019-05-22T12:24:03.755Z,69.92
2019-05-22T12:25:03.932Z,68.86
2019-05-22T12:26:04.093Z,69.15
2019-05-22T12:27:04.257Z,69.47
2019-05-22T12:28:04.510Z,69.85
2019-05-22T12:29:04.561Z,69.57
2019-05-22T12:30:04.765Z,68.51
2019-05-22T12:31:04.937Z,68.99
2019-05-22T12:32:05.106Z,69.47
2019-05-22T12:33:12.760Z,71.01
2019-05-22T12:34:05.462Z,68.48
2019-05-22T12:35:05.637Z,68.67
2019-05-22T12:36:05.811Z,69.24
2019-05-22T12:37:05.986Z,69.79
2019-05-22T12:38:06.346Z,69.98
2019-05-22T12:39:06.373Z,70.56
2019-05-22T12:40:06.545Z,70.56
2019-05-22T12:41:06.756Z,70.43
2019-05-22T12:42:06.934Z,71.58
2019-05-22T12:43:07.104Z,71.87
2019-05-22T12:44:07.275Z,71.64
2019-05-22T12:45:07.448Z,72.22
2019-05-22T12:46:07.617Z,72.60
2019-05-22T12:47:07.799Z,72.99
2019-05-22T12:48:07.967Z,73.37
2019-05-22T12:49:09.122Z,74.13
2019-05-22T12:50:08.314Z,73.75
2019-05-22T12:51:08.495Z,73.94
2019-05-22T12:52:08.674Z,75.10
2019-05-22T12:53:08.839Z,74.71
2019-05-22T12:54:09.502Z,74.23
2019-05-22T12:55:09.421Z,72.69